Time;durP1;ratioP1;P1;durP2;ratioP2;P2;SDS_P1;SDS_P2;PMS_P1;PMS_P2;Temp;Humidity;BMP_temperature;BMP_pressure;BME280_temperature;BME280_humidity;BME280_pressure;Samples;Min_cycle;Max_cycle;Signal;HPM_P1;HPM_P2
2021/12/19 00:00:42;;;;;;;;;;;;;;;8.59;74.44;103366.53;5096191;28;27072;-79
2021/12/19 00:03:33;;;;;;;;;;;;;;;8.61;74.70;103364.88;5095928;28;26632;-80
2021/12/19 00:11:05;;;;;;;;;;;;;;;8.63;74.54;103358.03;5093432;28;26819;-80
2021/12/19 00:13:30;;;;;;;;;;;;;;;8.65;74.39;103346.09;5100834;28;26485;-80
2021/12/19 00:15:56;;;;;;;;;;;;;;;8.67;74.52;103346.97;5098563;28;26963;-80
2021/12/19 00:18:22;;;;;;;;;;;;;;;8.68;74.38;103341.00;5097139;28;26829;-80
2021/12/19 00:20:47;;;;;;;;;;;;;;;8.65;74.70;103340.94;5097969;28;28738;-80
2021/12/19 00:23:12;;;;;;;;;;;;;;;8.65;74.74;103335.78;5100760;28;40656;-79
2021/12/19 00:25:38;;;;;;;;;;;;;;;8.64;74.62;103328.88;5079352;28;28532;-80
2021/12/19 00:28:03;;;;;;;;;;;;;;;8.66;74.46;103322.03;5097187;28;26885;-80
2021/12/19 00:30:28;;;;;;;;;;;;;;;8.69;74.46;103324.72;5095840;28;27753;-80
2021/12/19 00:32:54;;;;;;;;;;;;;;;8.70;74.81;103310.97;5096708;28;26931;-81
2021/12/19 00:35:19;;;;;;;;;;;;;;;8.67;74.71;103313.50;5095971;28;27007;-80
2021/12/19 00:37:44;;;;;;;;;;;;;;;8.67;74.61;103308.34;5096867;28;26714;-80
2021/12/19 00:40:10;;;;;;;;;;;;;;;8.67;74.52;103308.34;5097250;28;26750;-80
2021/12/19 00:42:36;;;;;;;;;;;;;;;8.65;75.02;103307.44;5097056;28;26780;-80
2021/12/19 00:45:16;;;;;;;;;;;;;;;8.67;74.76;103303.19;5097640;28;26973;-80
2021/12/19 00:47:41;;;;;;;;;;;;;;;8.71;74.75;103305.00;5096737;28;26948;-81
2021/12/19 00:50:06;;;;;;;;;;;;;;;8.73;74.97;103294.75;5100251;27;27962;-80
2021/12/19 00:52:32;;;;;;;;;;;;;;;8.74;74.76;103294.75;5101800;28;26845;-80
2021/12/19 00:54:57;;;;;;;;;;;;;;;8.72;74.95;103291.28;5081538;28;57152;-80
2021/12/19 00:57:22;;;;;;;;;;;;;;;8.73;74.58;103287.84;5100231;28;54110;-80
2021/12/19 00:59:47;;;;;;;;;;;;;;;8.75;74.56;103290.47;5099827;28;39500;-80
2021/12/19 01:02:12;;;;;;;;;;;;;;;8.73;75.05;103285.28;5101214;28;28946;-80
2021/12/19 01:04:38;;;;;;;;;;;;;;;8.77;75.04;103285.38;5100270;28;26958;-81
2021/12/19 01:07:03;;;;;;;;;;;;;;;8.77;74.79;103283.66;5101276;28;27007;-80
2021/12/19 01:09:30;;;;;;;;;;;;;;;8.78;74.69;103284.50;5103445;28;27070;-80
2021/12/19 01:11:55;;;;;;;;;;;;;;;8.80;74.75;103283.72;5102935;28;26750;-80
2021/12/19 01:14:21;;;;;;;;;;;;;;;8.82;74.81;103283.75;5101539;28;27772;-79
2021/12/19 01:16:46;;;;;;;;;;;;;;;8.86;74.99;103277.81;5101077;28;26735;-80
2021/12/19 01:19:11;;;;;;;;;;;;;;;8.88;74.72;103281.31;5100595;28;26755;-80
2021/12/19 01:21:36;;;;;;;;;;;;;;;8.91;74.44;103278.81;5100840;28;26784;-81
2021/12/19 01:24:02;;;;;;;;;;;;;;;8.92;74.52;103268.53;5100680;28;26879;-80
2021/12/19 01:26:27;;;;;;;;;;;;;;;8.94;74.75;103265.97;5100297;28;26803;-80
2021/12/19 01:28:52;;;;;;;;;;;;;;;8.94;75.34;103265.97;5099094;28;32864;-80
2021/12/19 01:31:17;;;;;;;;;;;;;;;8.95;74.75;103267.72;5098914;28;33804;-80
2021/12/19 01:33:43;;;;;;;;;;;;;;;8.97;74.85;103266.03;5099892;28;26781;-81
2021/12/19 01:36:08;;;;;;;;;;;;;;;8.99;74.80;103259.22;5099877;28;26934;-81
2021/12/19 01:38:33;;;;;;;;;;;;;;;9.01;74.73;103262.69;5099622;28;27186;-80
2021/12/19 01:40:59;;;;;;;;;;;;;;;9.05;74.63;103254.19;5099987;28;26787;-80
2021/12/19 01:43:27;;;;;;;;;;;;;;;9.07;74.53;103257.69;5099369;28;27056;-81
2021/12/19 01:45:53;;;;;;;;;;;;;;;9.07;74.33;103253.38;5098973;28;26883;-80
2021/12/19 01:48:19;;;;;;;;;;;;;;;9.07;74.84;103248.22;5098944;28;26741;-80
2021/12/19 01:50:44;;;;;;;;;;;;;;;9.08;74.48;103249.09;5097814;28;27010;-80
2021/12/19 01:53:11;;;;;;;;;;;;;;;9.09;74.43;103246.56;5098817;28;27611;-81
2021/12/19 01:55:37;;;;;;;;;;;;;;;9.08;75.06;103243.94;5099869;28;26963;-81
2021/12/19 01:58:02;;;;;;;;;;;;;;;9.09;74.72;103235.38;5099938;28;26899;-81
2021/12/19 02:00:29;;;;;;;;;;;;;;;9.11;75.17;103238.84;5097788;27;27007;-81
2021/12/19 02:02:55;;;;;;;;;;;;;;;9.11;74.50;103238.84;5099384;28;27062;-81
2021/12/19 02:05:20;;;;;;;;;;;;;;;9.15;74.79;103240.63;5098964;28;27109;-80
2021/12/19 02:07:47;;;;;;;;;;;;;;;9.15;74.38;103240.63;5099014;28;27597;-78
2021/12/19 02:10:13;;;;;;;;;;;;;;;9.15;74.94;103235.47;5098471;28;26802;-79
2021/12/19 02:12:39;;;;;;;;;;;;;;;9.17;74.75;103238.97;5099017;28;26958;-80
2021/12/19 02:15:04;;;;;;;;;;;;;;;9.18;74.76;103225.25;5099781;28;26841;-80
2021/12/19 02:17:29;;;;;;;;;;;;;;;9.22;74.64;103221.88;5099368;28;26921;-78
2021/12/19 02:19:56;;;;;;;;;;;;;;;9.24;74.67;103230.50;5102747;28;54286;-78
2021/12/19 02:22:21;;;;;;;;;;;;;;;9.27;75.07;103225.41;5100733;28;27081;-78
2021/12/19 02:24:47;;;;;;;;;;;;;;;9.26;74.42;103218.50;5097058;28;51231;-78
2021/12/19 02:27:12;;;;;;;;;;;;;;;9.26;74.93;103215.94;5098183;28;26916;-80
2021/12/19 02:29:37;;;;;;;;;;;;;;;9.28;74.44;103222.00;5097568;28;54533;-79
2021/12/19 02:32:04;;;;;;;;;;;;;;;9.29;74.50;103223.75;5098439;28;47839;-78
2021/12/19 02:34:32;;;;;;;;;;;;;;;9.26;74.60;103223.66;5098683;28;26921;-78
2021/12/19 02:37:06;;;;;;;;;;;;;;;9.24;74.62;103209.88;5098386;28;26908;-80
2021/12/19 02:49:58;;;;;;;;;;;;;;;9.26;74.86;103194.44;5098412;28;26811;-80
2021/12/19 02:52:23;;;;;;;;;;;;;;;9.26;74.85;103186.72;5098259;28;42551;-79
2021/12/19 02:54:49;;;;;;;;;;;;;;;9.24;75.08;103181.53;5098873;28;26718;-79
2021/12/19 02:57:14;;;;;;;;;;;;;;;9.23;74.81;103182.34;5098514;28;27170;-80
2021/12/19 02:59:39;;;;;;;;;;;;;;;9.24;75.79;103184.09;5101637;28;26902;-80
2021/12/19 03:02:04;;;;;;;;;;;;;;;9.27;74.89;103179.00;5101818;28;26881;-78
2021/12/19 03:04:29;;;;;;;;;;;;;;;9.28;75.21;103178.16;5095882;28;26680;-80
2021/12/19 03:06:55;;;;;;;;;;;;;;;9.30;74.91;103168.72;5096602;28;36715;-78
2021/12/19 03:09:56;;;;;;;;;;;;;;;9.28;74.70;103170.41;5097158;28;31014;-78
2021/12/19 03:17:58;;;;;;;;;;;;;;;9.29;74.82;103167.00;5098455;28;26995;-80
2021/12/19 03:20:24;;;;;;;;;;;;;;;9.30;74.76;103158.41;5098158;28;26809;-79
2021/12/19 03:22:49;;;;;;;;;;;;;;;9.30;75.43;103150.69;5097344;28;26795;-78
2021/12/19 03:25:14;;;;;;;;;;;;;;;9.32;74.84;103140.41;5096986;28;26799;-78
2021/12/19 03:27:40;;;;;;;;;;;;;;;9.32;74.89;103135.25;5096877;28;57439;-81
2021/12/19 03:30:06;;;;;;;;;;;;;;;9.31;74.41;103128.34;5098357;28;26862;-81
2021/12/19 03:32:32;;;;;;;;;;;;;;;9.29;74.58;103136.06;5098911;28;27831;-81
2021/12/19 03:34:57;;;;;;;;;;;;;;;9.31;74.76;103131.78;5113985;28;26736;-81
2021/12/19 03:37:22;;;;;;;;;;;;;;;9.29;74.96;103130.91;5102140;28;27008;-81
2021/12/19 03:40:07;;;;;;;;;;;;;;;9.32;75.04;103125.78;5097347;28;26893;-81
2021/12/19 03:42:33;;;;;;;;;;;;;;;9.33;74.92;103117.22;5097684;28;27190;-81
2021/12/19 03:44:59;;;;;;;;;;;;;;;9.34;75.03;103121.53;5097922;28;26785;-81
2021/12/19 03:47:24;;;;;;;;;;;;;;;9.35;74.89;103120.69;5097914;28;27323;-81
2021/12/19 03:49:49;;;;;;;;;;;;;;;9.37;74.83;103119.03;5097487;28;43421;-82
2021/12/19 03:52:14;;;;;;;;;;;;;;;9.36;74.61;103124.13;5098146;28;26859;-81
2021/12/19 03:54:40;;;;;;;;;;;;;;;9.36;74.54;103111.25;5101015;28;26870;-81
2021/12/19 03:57:05;;;;;;;;;;;;;;;9.34;74.82;103103.47;5098689;28;26958;-81
2021/12/19 03:59:31;;;;;;;;;;;;;;;9.32;74.76;103105.16;5095694;28;52554;-82
2021/12/19 04:01:56;;;;;;;;;;;;;;;9.32;74.78;103106.88;5097010;28;26923;-82
2021/12/19 04:04:22;;;;;;;;;;;;;;;9.30;74.80;103108.56;5099179;28;27093;-81
2021/12/19 04:06:47;;;;;;;;;;;;;;;9.33;74.69;103103.47;5099188;28;27720;-81
2021/12/19 04:09:12;;;;;;;;;;;;;;;9.35;74.55;103105.22;5097997;28;26897;-80
2021/12/19 04:11:37;;;;;;;;;;;;;;;9.37;75.11;103103.53;5097701;28;26851;-78
2021/12/19 04:14:02;;;;;;;;;;;;;;;9.39;74.48;103104.44;5097314;28;26920;-78
2021/12/19 04:16:28;;;;;;;;;;;;;;;9.40;75.15;103095.84;5097173;28;26730;-78
2021/12/19 04:18:53;;;;;;;;;;;;;;;9.39;74.43;103096.69;5097673;28;26795;-79
2021/12/19 04:21:18;;;;;;;;;;;;;;;9.37;74.78;103090.66;5096639;28;26930;-79
2021/12/19 04:23:43;;;;;;;;;;;;;;;9.38;74.51;103094.94;5098562;28;26694;-80
2021/12/19 04:26:09;;;;;;;;;;;;;;;9.38;74.67;103100.09;5100418;28;33151;-79
2021/12/19 04:28:34;;;;;;;;;;;;;;;9.36;74.99;103086.31;5101404;28;54808;-79
2021/12/19 04:31:00;;;;;;;;;;;;;;;9.40;74.65;103092.41;5101778;28;27072;-79
2021/12/19 04:33:28;;;;;;;;;;;;;;;9.42;75.31;103096.72;5100646;28;26917;-78
2021/12/19 04:35:59;;;;;;;;;;;;;;;9.42;74.11;103091.56;5099270;28;27543;-79
2021/12/19 04:44:26;;;;;;;;;;;;;;;9.44;75.07;103094.19;5096955;28;26797;-80
2021/12/19 04:52:33;;;;;;;;;;;;;;;9.37;74.67;103095.81;5103321;28;27144;-81
2021/12/19 04:57:44;;;;;;;;;;;;;;;9.33;74.58;103096.59;5100128;28;26838;-79
2021/12/19 05:00:13;;;;;;;;;;;;;;;9.33;74.55;103085.41;5099406;28;27133;-80
2021/12/19 05:02:48;;;;;;;;;;;;;;;9.31;74.51;103077.63;5099289;28;27373;-80
2021/12/19 05:05:47;;;;;;;;;;;;;;;9.31;74.90;103077.63;5098357;28;26922;-80
2021/12/19 05:16:24;;;;;;;;;;;;;;;9.27;74.93;103070.69;5099301;28;26770;-80
2021/12/19 05:18:52;;;;;;;;;;;;;;;9.27;74.94;103078.41;5100279;28;27694;-80
2021/12/19 05:21:21;;;;;;;;;;;;;;;9.27;74.99;103068.09;5101005;28;26802;-80
2021/12/19 05:24:17;;;;;;;;;;;;;;;9.28;74.86;103067.28;5101694;28;26884;-81
2021/12/19 05:26:42;;;;;;;;;;;;;;;9.27;74.51;103062.94;5100215;28;26962;-81
2021/12/19 05:29:07;;;;;;;;;;;;;;;9.25;74.67;103064.66;5101962;28;27846;-81
2021/12/19 05:31:32;;;;;;;;;;;;;;;9.21;74.47;103060.28;5101831;28;26803;-82
2021/12/19 05:33:58;;;;;;;;;;;;;;;9.20;74.74;103058.53;5097843;28;56867;-81
2021/12/19 05:46:53;;;;;;;;;;;;;;;9.05;74.67;103045.38;5100068;28;26817;-80
2021/12/19 05:49:18;;;;;;;;;;;;;;;9.00;74.81;103045.28;5099478;28;26644;-80
2021/12/19 05:51:43;;;;;;;;;;;;;;;8.98;74.77;103046.13;5098597;28;54761;-80
2021/12/19 05:54:10;;;;;;;;;;;;;;;8.96;74.83;103047.81;5097698;28;45429;-78
2021/12/19 05:56:35;;;;;;;;;;;;;;;8.94;74.95;103039.19;5097518;28;26809;-78
2021/12/19 05:59:00;;;;;;;;;;;;;;;8.94;75.06;103041.75;5098336;28;26879;-78
2021/12/19 06:01:26;;;;;;;;;;;;;;;8.93;74.84;103047.75;5097921;28;51818;-79
2021/12/19 06:03:51;;;;;;;;;;;;;;;8.95;74.76;103051.22;5100603;28;57206;-78
2021/12/19 06:06:16;;;;;;;;;;;;;;;8.96;75.18;103051.22;5102314;28;26903;-79
2021/12/19 06:08:41;;;;;;;;;;;;;;;9.00;75.03;103039.28;5098231;28;54347;-78
2021/12/19 06:11:06;;;;;;;;;;;;;;;9.01;74.85;103030.69;5098116;28;27024;-79
2021/12/19 06:13:32;;;;;;;;;;;;;;;9.01;75.21;103041.00;5098420;28;26843;-78
2021/12/19 06:15:57;;;;;;;;;;;;;;;9.00;75.10;103034.13;5098314;28;26935;-78
2021/12/19 06:18:23;;;;;;;;;;;;;;;8.99;75.16;103028.13;5099467;28;27017;-79
2021/12/19 06:20:49;;;;;;;;;;;;;;;9.01;75.12;103022.97;5099767;28;26768;-80
2021/12/19 06:23:14;;;;;;;;;;;;;;;8.98;74.96;103022.94;5099398;28;26879;-82
2021/12/19 06:25:45;;;;;;;;;;;;;;;8.96;74.59;103016.88;5099081;28;27039;-80
2021/12/19 06:28:11;;;;;;;;;;;;;;;8.95;74.71;103025.47;5099103;28;26617;-81
2021/12/19 06:30:36;;;;;;;;;;;;;;;8.92;75.01;103025.41;5097199;28;26875;-80
2021/12/19 06:33:01;;;;;;;;;;;;;;;8.91;74.85;103023.66;5096849;28;56326;-80
2021/12/19 06:35:29;;;;;;;;;;;;;;;8.88;74.72;103024.50;5097483;28;48152;-80
2021/12/19 06:37:54;;;;;;;;;;;;;;;8.85;74.90;103023.56;5099283;28;27650;-82
2021/12/19 06:40:20;;;;;;;;;;;;;;;8.84;75.41;103021.81;5100381;28;26939;-81
2021/12/19 06:42:46;;;;;;;;;;;;;;;8.85;75.19;103026.16;5098424;28;27785;-82
2021/12/19 06:45:12;;;;;;;;;;;;;;;8.84;75.15;103016.66;5097725;28;26956;-82
2021/12/19 06:47:37;;;;;;;;;;;;;;;8.84;74.95;103021.81;5098244;27;27114;-82
2021/12/19 06:50:03;;;;;;;;;;;;;;;8.85;75.19;103018.41;5098895;28;27012;-82
2021/12/19 06:52:28;;;;;;;;;;;;;;;8.85;75.09;103005.53;5097923;28;26882;-81
2021/12/19 06:54:53;;;;;;;;;;;;;;;8.83;75.09;103014.94;5099176;28;27004;-80
2021/12/19 06:57:19;;;;;;;;;;;;;;;8.82;75.10;103008.03;5098231;28;49783;-82
2021/12/19 06:59:44;;;;;;;;;;;;;;;8.85;75.47;103013.25;5100457;28;26954;-82
2021/12/19 07:02:13;;;;;;;;;;;;;;;8.85;75.30;103023.56;5101578;28;26810;-81
2021/12/19 07:04:39;;;;;;;;;;;;;;;8.90;75.25;103021.91;5097671;28;27026;-82
2021/12/19 07:07:04;;;;;;;;;;;;;;;8.91;75.15;103019.38;5097525;28;26848;-80
2021/12/19 07:09:30;;;;;;;;;;;;;;;8.92;75.34;103015.09;5097352;28;26977;-81
2021/12/19 07:11:55;;;;;;;;;;;;;;;8.93;75.02;103011.66;5096785;28;53221;-80
2021/12/19 07:14:20;;;;;;;;;;;;;;;8.89;74.88;103009.88;5096836;28;26972;-80
2021/12/19 07:16:45;;;;;;;;;;;;;;;8.87;75.02;103011.56;5096025;28;57279;-80
2021/12/19 07:19:10;;;;;;;;;;;;;;;8.85;74.92;103010.69;5109001;28;53916;-82
2021/12/19 07:21:36;;;;;;;;;;;;;;;8.82;74.86;103008.03;5100758;28;26850;-82
2021/12/19 07:24:01;;;;;;;;;;;;;;;8.80;74.99;103012.31;5096569;28;54783;-80
2021/12/19 07:26:26;;;;;;;;;;;;;;;8.81;74.80;103003.75;5096061;28;57377;-80
2021/12/19 07:28:51;;;;;;;;;;;;;;;8.81;75.05;103011.47;5097233;28;33836;-81
2021/12/19 07:31:17;;;;;;;;;;;;;;;8.80;75.31;103004.56;5096922;28;26971;-81
2021/12/19 07:33:44;;;;;;;;;;;;;;;8.80;75.14;103007.16;5098085;28;26856;-82
2021/12/19 07:36:09;;;;;;;;;;;;;;;8.81;75.23;103006.31;5097593;28;26933;-81
2021/12/19 07:38:46;;;;;;;;;;;;;;;8.82;75.18;103000.28;5096780;28;33726;-82
2021/12/19 07:41:12;;;;;;;;;;;;;;;8.85;75.19;102995.22;5096736;28;27800;-82
2021/12/19 07:43:37;;;;;;;;;;;;;;;8.86;75.28;102991.78;5096289;28;54450;-80
2021/12/19 07:46:02;;;;;;;;;;;;;;;8.91;74.66;102992.75;5095619;28;56553;-80
2021/12/19 07:48:27;;;;;;;;;;;;;;;8.95;75.14;102994.53;5096396;28;55073;-81
2021/12/19 07:50:54;;;;;;;;;;;;;;;8.96;74.82;103002.28;5097475;28;26817;-82
2021/12/19 07:53:19;;;;;;;;;;;;;;;8.96;75.31;102996.28;5099277;28;26952;-79
2021/12/19 07:55:44;;;;;;;;;;;;;;;8.99;75.28;102980.84;5101780;28;26921;-80
2021/12/19 07:58:09;;;;;;;;;;;;;;;8.99;75.23;102986.00;5101796;27;26841;-79
2021/12/19 08:00:35;;;;;;;;;;;;;;;9.02;75.00;102988.63;5102877;28;26946;-80
2021/12/19 08:03:00;;;;;;;;;;;;;;;9.04;75.13;102994.66;5103341;28;27048;-80
2021/12/19 08:05:25;;;;;;;;;;;;;;;9.06;75.19;102993.00;5101369;28;26833;-80
2021/12/19 08:07:56;;;;;;;;;;;;;;;9.03;74.99;102982.66;5100896;28;26854;-80
2021/12/19 08:12:49;;;;;;;;;;;;;;;9.03;75.23;102982.66;5098133;28;26943;-80
2021/12/19 08:15:15;;;;;;;;;;;;;;;9.04;75.15;102989.50;5100952;28;26879;-81
2021/12/19 08:17:40;;;;;;;;;;;;;;;9.03;75.18;102987.81;5101370;28;27059;-80
2021/12/19 08:20:07;;;;;;;;;;;;;;;9.02;75.22;102986.06;5102646;28;27031;-81
2021/12/19 08:22:33;;;;;;;;;;;;;;;9.02;75.11;102989.50;5102332;28;26947;-80
2021/12/19 08:24:59;;;;;;;;;;;;;;;9.03;75.30;102977.50;5082609;28;28947;-80
2021/12/19 08:27:25;;;;;;;;;;;;;;;9.03;75.27;102978.34;5101325;28;27007;-79
2021/12/19 08:29:51;;;;;;;;;;;;;;;9.08;75.19;102978.41;5100569;28;26876;-79
2021/12/19 08:32:17;;;;;;;;;;;;;;;9.12;75.31;102977.63;5101197;28;26758;-79
2021/12/19 08:34:42;;;;;;;;;;;;;;;9.14;75.44;102969.09;5100084;28;26780;-79
2021/12/19 08:37:07;;;;;;;;;;;;;;;9.19;75.28;102963.97;5100781;28;26782;-79
2021/12/19 08:39:33;;;;;;;;;;;;;;;9.23;75.12;102970.91;5101175;28;27427;-79
2021/12/19 08:41:59;;;;;;;;;;;;;;;9.26;74.95;102968.38;5100644;28;26844;-79
2021/12/19 08:44:24;;;;;;;;;;;;;;;9.29;75.08;102971.03;5100445;28;27230;-79
2021/12/19 08:46:49;;;;;;;;;;;;;;;9.34;74.79;102968.50;5100999;28;26822;-79
2021/12/19 08:49:15;;;;;;;;;;;;;;;9.32;75.36;102960.75;5099716;28;28957;-78
2021/12/19 08:51:40;;;;;;;;;;;;;;;9.35;74.89;102960.78;5100752;28;26818;-78
2021/12/19 08:54:06;;;;;;;;;;;;;;;9.35;74.92;102960.78;5101143;28;26968;-78
2021/12/19 08:56:31;;;;;;;;;;;;;;;9.34;75.32;102964.22;5100367;28;26987;-79
2021/12/19 08:58:57;;;;;;;;;;;;;;;9.32;75.29;102955.59;5099563;28;27007;-79
2021/12/19 09:01:22;;;;;;;;;;;;;;;9.29;75.33;102955.56;5099236;28;26910;-78
2021/12/19 09:03:48;;;;;;;;;;;;;;;9.30;75.13;102962.44;5099481;28;26850;-79
2021/12/19 09:06:13;;;;;;;;;;;;;;;9.33;74.91;102957.34;5098512;28;53604;-79
2021/12/19 09:08:38;;;;;;;;;;;;;;;9.35;75.12;102965.94;5100755;28;26964;-80
2021/12/19 09:11:04;;;;;;;;;;;;;;;9.36;74.99;102962.53;5100140;28;26898;-79
2021/12/19 09:13:29;;;;;;;;;;;;;;;9.37;74.84;102964.28;5100066;28;56463;-80
2021/12/19 09:15:54;;;;;;;;;;;;;;;9.41;74.74;102960.03;5101139;28;26454;-80
2021/12/19 09:18:19;;;;;;;;;;;;;;;9.46;75.03;102963.53;5101127;28;26793;-80
2021/12/19 09:20:45;;;;;;;;;;;;;;;9.49;74.98;102972.16;5099853;28;26828;-80
2021/12/19 09:23:11;;;;;;;;;;;;;;;9.52;74.73;102964.47;5101277;28;27054;-79
2021/12/19 09:25:37;;;;;;;;;;;;;;;9.57;75.46;102972.28;5101739;28;26771;-79
2021/12/19 09:28:02;;;;;;;;;;;;;;;9.58;74.71;102971.44;5100965;28;26761;-78
2021/12/19 09:30:27;;;;;;;;;;;;;;;9.57;74.77;102967.13;5100631;28;26838;-78
2021/12/19 09:32:53;;;;;;;;;;;;;;;9.57;75.07;102962.81;5100730;28;27684;-79
2021/12/19 09:35:18;;;;;;;;;;;;;;;9.58;75.03;102963.69;5099951;28;26851;-80
2021/12/19 09:37:43;;;;;;;;;;;;;;;9.54;74.66;102967.94;5099918;28;27614;-79
2021/12/19 09:40:11;;;;;;;;;;;;;;;9.54;74.63;102962.78;5099264;28;26983;-79
2021/12/19 09:42:44;;;;;;;;;;;;;;;9.56;74.70;102965.41;5100079;28;26971;-79
2021/12/19 09:45:09;;;;;;;;;;;;;;;9.57;74.91;102952.50;5099834;28;26980;-78
2021/12/19 09:47:35;;;;;;;;;;;;;;;9.57;75.05;102949.94;5099209;28;56453;-79
2021/12/19 09:50:05;;;;;;;;;;;;;;;9.58;75.03;102949.09;5099896;28;27018;-80
2021/12/19 09:52:31;;;;;;;;;;;;;;;9.59;75.28;102945.69;5100183;28;26557;-79
2021/12/19 09:54:56;;;;;;;;;;;;;;;9.61;75.01;102943.97;5099529;28;26746;-79
2021/12/19 09:57:22;;;;;;;;;;;;;;;9.65;74.79;102938.00;5101190;28;26757;-78
2021/12/19 09:59:47;;;;;;;;;;;;;;;9.65;74.92;102930.25;5099524;28;27296;-78
2021/12/19 10:02:13;;;;;;;;;;;;;;;9.67;74.97;102933.72;5081309;28;29230;-79
2021/12/19 10:04:40;;;;;;;;;;;;;;;9.70;75.00;102928.63;5099448;28;26950;-78
2021/12/19 10:07:15;;;;;;;;;;;;;;;9.75;74.82;102930.41;5100842;28;27243;-78
2021/12/19 10:10:02;;;;;;;;;;;;;;;9.77;74.96;102923.53;5101870;28;26927;-78
2021/12/19 10:15:06;;;;;;;;;;;;;;;9.87;75.23;102925.34;5095469;28;26993;-78
2021/12/19 10:17:31;;;;;;;;;;;;;;;9.88;74.39;102911.63;5099355;28;28955;-80
2021/12/19 10:19:57;;;;;;;;;;;;;;;9.88;74.79;102916.78;5100649;28;27087;-79
2021/12/19 10:22:28;;;;;;;;;;;;;;;9.90;75.29;102904.75;5099742;27;26789;-80
2021/12/19 10:24:54;;;;;;;;;;;;;;;9.92;75.16;102908.22;5100758;28;26402;-80
2021/12/19 10:27:31;;;;;;;;;;;;;;;9.89;74.68;102908.19;5101262;28;27630;-79
2021/12/19 10:29:57;;;;;;;;;;;;;;;9.87;74.92;102905.59;5098704;28;26816;-78
2021/12/19 10:32:23;;;;;;;;;;;;;;;9.92;75.14;102897.91;5100834;28;27150;-79
2021/12/19 10:34:48;;;;;;;;;;;;;;;9.97;74.34;102906.56;5099591;28;26837;-80
2021/12/19 10:37:30;;;;;;;;;;;;;;;10.04;74.96;102905.78;5099386;28;33317;-80
2021/12/19 10:39:58;;;;;;;;;;;;;;;10.05;74.84;102905.78;5098816;28;26730;-80
2021/12/19 10:42:24;;;;;;;;;;;;;;;10.08;74.74;102898.09;5099035;28;26836;-79
2021/12/19 10:47:34;;;;;;;;;;;;;;;10.11;74.75;102889.50;5099907;28;26889;-80
2021/12/19 10:50:00;;;;;;;;;;;;;;;10.13;74.55;102887.78;5099298;28;26764;-80
2021/12/19 10:52:32;;;;;;;;;;;;;;;10.12;74.66;102891.25;5099356;28;55151;-80
2021/12/19 10:54:59;;;;;;;;;;;;;;;10.09;74.34;102891.19;5099835;28;26978;-80
2021/12/19 10:57:30;;;;;;;;;;;;;;;10.11;74.51;102892.09;5098994;28;27041;-80
2021/12/19 10:59:56;;;;;;;;;;;;;;;10.15;74.08;102891.31;5102028;28;26745;-80
2021/12/19 11:02:34;;;;;;;;;;;;;;;10.17;74.08;102890.47;5100542;28;26906;-79
2021/12/19 11:04:59;;;;;;;;;;;;;;;10.17;74.49;102885.28;5102501;28;26935;-79
2021/12/19 11:07:24;;;;;;;;;;;;;;;10.15;74.21;102875.81;5098634;28;55253;-78
2021/12/19 11:09:50;;;;;;;;;;;;;;;10.15;74.36;102870.66;5097560;28;54837;-78
2021/12/19 11:12:15;;;;;;;;;;;;;;;10.17;74.10;102866.34;5097835;28;55107;-79
2021/12/19 11:14:44;;;;;;;;;;;;;;;10.16;74.65;102862.91;5097788;28;48703;-79
2021/12/19 11:17:12;;;;;;;;;;;;;;;10.15;73.74;102852.56;5099753;28;27067;-77
2021/12/19 11:19:39;;;;;;;;;;;;;;;10.16;74.10;102851.69;5098270;28;26750;-78
2021/12/19 11:22:04;;;;;;;;;;;;;;;10.16;74.79;102851.69;5098046;28;27568;-78
2021/12/19 11:24:29;;;;;;;;;;;;;;;10.18;74.29;102850.00;5096959;28;27102;-78
2021/12/19 11:26:56;;;;;;;;;;;;;;;10.19;74.25;102846.59;5097117;28;27719;-78
2021/12/19 11:29:21;;;;;;;;;;;;;;;10.20;74.56;102850.88;5096207;28;26995;-78
2021/12/19 11:31:50;;;;;;;;;;;;;;;10.18;74.03;102845.72;5097768;28;27597;-79
2021/12/19 11:34:18;;;;;;;;;;;;;;;10.15;74.54;102850.88;5097155;28;26950;-79
2021/12/19 11:36:46;;;;;;;;;;;;;;;10.11;74.22;102849.06;5097865;28;27833;-79
2021/12/19 11:39:12;;;;;;;;;;;;;;;10.11;74.41;102838.75;5097113;28;26983;-79
2021/12/19 11:41:39;;;;;;;;;;;;;;;10.12;74.73;102830.13;5097239;28;26927;-79
2021/12/19 11:44:07;;;;;;;;;;;;;;;10.11;73.83;102828.41;5098261;28;26831;-79
2021/12/19 11:46:43;;;;;;;;;;;;;;;10.12;74.64;102830.13;5098658;28;26743;-79
2021/12/19 11:49:10;;;;;;;;;;;;;;;10.16;74.06;102815.53;5099785;28;26813;-79
2021/12/19 11:51:35;;;;;;;;;;;;;;;10.14;74.78;102809.50;5099377;28;26847;-79
2021/12/19 11:54:11;;;;;;;;;;;;;;;10.15;74.43;102809.56;5099489;28;26837;-79
2021/12/19 11:56:36;;;;;;;;;;;;;;;10.14;74.30;102809.50;5098699;28;26770;-79
2021/12/19 11:59:16;;;;;;;;;;;;;;;10.15;74.34;102804.38;5097652;28;55322;-81
2021/12/19 12:01:42;;;;;;;;;;;;;;;10.18;74.05;102795.78;5098276;28;27179;-80
2021/12/19 12:04:12;;;;;;;;;;;;;;;10.20;73.98;102785.47;5097863;28;26781;-80
2021/12/19 12:06:40;;;;;;;;;;;;;;;10.22;73.83;102778.59;5097641;28;28191;-81
2021/12/19 12:09:19;;;;;;;;;;;;;;;10.24;74.59;102777.75;5097110;28;27017;-80
2021/12/19 12:11:59;;;;;;;;;;;;;;;10.22;74.06;102773.44;5096463;28;27544;-81
2021/12/19 12:14:29;;;;;;;;;;;;;;;10.21;74.07;102772.56;5096355;28;26883;-80
2021/12/19 12:16:56;;;;;;;;;;;;;;;10.24;74.31;102767.41;5096673;28;26853;-80
2021/12/19 12:19:41;;;;;;;;;;;;;;;10.27;74.14;102767.47;5105971;28;26785;-81
2021/12/19 12:22:20;;;;;;;;;;;;;;;10.30;74.34;102764.91;5097776;28;26985;-80
2021/12/19 12:25:04;;;;;;;;;;;;;;;10.31;74.20;102764.03;5097807;28;26999;-80
2021/12/19 12:27:40;;;;;;;;;;;;;;;10.34;74.41;102758.91;5097336;28;27321;-80
2021/12/19 12:30:10;;;;;;;;;;;;;;;10.34;74.32;102748.59;5097077;28;27042;-81
2021/12/19 12:32:35;;;;;;;;;;;;;;;10.33;74.14;102752.00;5097776;28;27729;-81
2021/12/19 12:35:00;;;;;;;;;;;;;;;10.30;74.36;102741.66;5097419;28;26928;-81
2021/12/19 12:37:27;;;;;;;;;;;;;;;10.26;74.15;102745.06;5097869;28;26848;-81
2021/12/19 12:40:16;;;;;;;;;;;;;;;10.28;73.74;102743.34;5097520;28;27151;-81
2021/12/19 12:42:59;;;;;;;;;;;;;;;10.26;74.29;102739.03;5097225;28;26927;-80
2021/12/19 12:45:25;;;;;;;;;;;;;;;10.27;74.10;102730.44;5098815;27;26796;-80
2021/12/19 12:47:51;;;;;;;;;;;;;;;10.26;74.05;102729.56;5100786;28;28064;-80
2021/12/19 12:50:16;;;;;;;;;;;;;;;10.25;73.85;102727.84;5103383;28;26915;-78
2021/12/19 12:52:41;;;;;;;;;;;;;;;10.22;74.20;102722.66;5101326;28;28021;-80
2021/12/19 12:55:06;;;;;;;;;;;;;;;10.19;74.35;102727.81;5100961;28;26851;-80
2021/12/19 12:57:35;;;;;;;;;;;;;;;10.19;74.58;102722.66;5100168;28;27026;-80
2021/12/19 13:00:00;;;;;;;;;;;;;;;10.21;74.29;102720.91;5099404;28;26841;-80
2021/12/19 13:02:31;;;;;;;;;;;;;;;10.23;74.65;102714.06;5099323;28;31486;-81
2021/12/19 13:04:59;;;;;;;;;;;;;;;10.26;73.82;102714.09;5099973;28;26737;-81
2021/12/19 13:07:25;;;;;;;;;;;;;;;10.27;74.40;102715.81;5099418;28;27038;-81
2021/12/19 13:09:52;;;;;;;;;;;;;;;10.29;74.52;102719.25;5101007;28;26989;-80
2021/12/19 13:12:20;;;;;;;;;;;;;;;10.30;74.28;102726.16;5101221;28;26908;-81
2021/12/19 13:14:45;;;;;;;;;;;;;;;10.30;74.46;102726.16;5103566;28;26812;-79
2021/12/19 13:17:18;;;;;;;;;;;;;;;10.29;74.44;102716.69;5101206;28;27387;-78
2021/12/19 13:19:53;;;;;;;;;;;;;;;10.32;74.23;102724.44;5100157;28;27002;-79
2021/12/19 13:22:31;;;;;;;;;;;;;;;10.28;73.48;102712.34;5100788;28;27503;-80
2021/12/19 13:24:57;;;;;;;;;;;;;;;10.28;73.84;102716.66;5102367;28;26903;-79
2021/12/19 13:27:25;;;;;;;;;;;;;;;10.26;73.77;102711.50;5100318;28;26769;-80
2021/12/19 13:29:58;;;;;;;;;;;;;;;10.26;74.14;102708.03;5098890;28;26973;-79
2021/12/19 13:32:23;;;;;;;;;;;;;;;10.29;74.56;102702.91;5099547;28;26778;-78
2021/12/19 13:34:49;;;;;;;;;;;;;;;10.30;74.30;102705.50;5099791;28;26789;-79
2021/12/19 13:37:14;;;;;;;;;;;;;;;10.28;73.83;102702.03;5100670;28;26872;-78
2021/12/19 13:39:42;;;;;;;;;;;;;;;10.24;74.12;102694.25;5101050;28;26906;-78
2021/12/19 13:42:08;;;;;;;;;;;;;;;10.21;74.40;102692.50;5099838;28;26979;-78
2021/12/19 13:44:34;;;;;;;;;;;;;;;10.21;73.62;102700.25;5099998;28;26945;-78
2021/12/19 13:47:08;;;;;;;;;;;;;;;10.22;73.79;102701.13;5099687;28;27013;-79